createdAt,value
2024-02-16T00:00:30.083Z,208.10
2024-02-16T00:03:38.182Z,230.26
2024-02-16T00:06:49.377Z,194.75
2024-02-16T00:09:57.775Z,225.88
2024-02-16T00:13:05.019Z,235.21
2024-02-16T00:16:13.185Z,213.49
2024-02-16T00:19:20.532Z,227.40
2024-02-16T00:22:31.438Z,232.55
2024-02-16T00:25:39.613Z,251.52
2024-02-16T00:28:48.018Z,198.16
2024-02-16T00:31:58.160Z,185.27
2024-02-16T00:35:06.645Z,174.05
2024-02-16T00:38:16.538Z,161.94
2024-02-16T00:41:27.536Z,136.59
2024-02-16T00:44:34.742Z,132.53
2024-02-16T00:47:42.885Z,112.21
2024-02-16T00:50:50.455Z,107.93
2024-02-16T00:54:01.196Z,110.80
2024-02-16T00:57:09.257Z,125.87
2024-02-16T01:00:21.101Z,131.93
2024-02-16T01:03:28.768Z,133.34
2024-02-16T01:06:36.973Z,135.53
2024-02-16T01:09:46.853Z,119.06
2024-02-16T01:12:57.395Z,122.68
2024-02-16T01:16:05.026Z,123.05
2024-02-16T01:19:13.238Z,128.03
2024-02-16T01:22:20.537Z,128.01
2024-02-16T01:25:31.244Z,135.61
2024-02-16T01:28:38.460Z,155.85
2024-02-16T01:31:46.578Z,197.86
2024-02-16T01:34:53.902Z,240.71
2024-02-16T01:38:02.826Z,297.85
2024-02-16T01:41:14.166Z,357.70
2024-02-16T01:44:22.474Z,412.37
2024-02-16T01:47:29.903Z,468.03
2024-02-16T01:50:38.524Z,512.51
2024-02-16T01:53:46.459Z,559.23
2024-02-16T01:56:59.357Z,598.04
2024-02-16T02:00:09.232Z,617.42
2024-02-16T02:03:19.714Z,632.58
2024-02-16T02:06:27.085Z,636.44
2024-02-16T02:09:35.212Z,641.28
2024-02-16T02:12:46.067Z,646.94
2024-02-16T02:15:54.691Z,641.08
2024-02-16T02:19:02.213Z,623.83
2024-02-16T02:22:19.376Z,616.27
2024-02-16T02:25:28.367Z,606.63
2024-02-16T02:28:36.534Z,588.11
2024-02-16T02:31:44.235Z,573.42
2024-02-16T02:34:52.408Z,558.90
2024-02-16T02:38:02.398Z,555.83
2024-02-16T02:41:10.523Z,540.53
2024-02-16T02:44:17.990Z,543.54
2024-02-16T02:47:26.112Z,541.59
2024-02-16T02:50:33.446Z,517.95
2024-02-16T02:53:44.854Z,521.65
2024-02-16T02:56:52.234Z,536.09
2024-02-16T03:00:12.884Z,530.25
2024-02-16T03:03:21.619Z,514.14
2024-02-16T03:06:29.956Z,498.42
2024-02-16T03:09:39.941Z,482.09
2024-02-16T03:12:50.590Z,476.87
2024-02-16T03:15:58.030Z,483.14
2024-02-16T03:19:10.535Z,478.95
2024-02-16T03:22:17.920Z,468.69
2024-02-16T03:25:28.648Z,465.93
2024-02-16T03:28:35.898Z,465.43
2024-02-16T03:31:44.686Z,470.62
2024-02-16T03:34:52.083Z,464.71
2024-02-16T03:38:00.398Z,458.69
2024-02-16T03:41:10.311Z,466.91
2024-02-16T03:44:18.563Z,467.19
2024-02-16T03:47:25.909Z,468.98
2024-02-16T03:50:34.027Z,473.33
2024-02-16T03:53:41.278Z,483.12
2024-02-16T03:56:51.990Z,478.82
2024-02-16T03:59:59.180Z,476.36
2024-02-16T04:03:07.649Z,469.67
2024-02-16T04:06:14.964Z,456.58
2024-02-16T04:09:23.066Z,466.32
2024-02-16T04:12:32.959Z,474.27
2024-02-16T04:15:41.225Z,475.33
2024-02-16T04:18:48.643Z,490.53
2024-02-16T04:21:59.043Z,475.79
2024-02-16T04:25:10.329Z,467.45
2024-02-16T04:28:21.027Z,465.23
2024-02-16T04:31:28.311Z,456.64
2024-02-16T04:34:36.467Z,442.39
2024-02-16T04:37:43.778Z,451.84
2024-02-16T04:40:51.894Z,455.01
2024-02-16T04:44:01.806Z,449.80
2024-02-16T04:47:10.708Z,460.45
2024-02-16T04:50:18.009Z,466.97
2024-02-16T04:53:26.080Z,494.99
2024-02-16T04:56:33.239Z,510.18
2024-02-16T04:59:43.912Z,553.87
2024-02-16T05:02:51.407Z,564.51
2024-02-16T05:05:59.532Z,545.26
2024-02-16T05:09:07.022Z,586.40
2024-02-16T05:12:15.054Z,630.23
2024-02-16T05:15:24.921Z,587.06
2024-02-16T05:18:33.164Z,551.13
2024-02-16T05:21:40.505Z,531.43
2024-02-16T05:24:49.118Z,517.08
2024-02-16T05:27:56.304Z,527.89
2024-02-16T05:31:20.052Z,528.83
2024-02-16T05:34:27.586Z,542.67
2024-02-16T05:37:36.444Z,555.16
2024-02-16T05:40:55.120Z,536.54
2024-02-16T05:44:03.159Z,514.67
2024-02-16T05:47:13.241Z,499.66
2024-02-16T05:50:22.012Z,481.53
2024-02-16T05:53:30.385Z,484.05
2024-02-16T05:56:40.527Z,479.82
2024-02-16T05:59:48.837Z,459.99
2024-02-16T06:03:00.644Z,456.18
2024-02-16T06:06:09.724Z,451.27
2024-02-16T06:09:17.840Z,457.58
2024-02-16T06:12:25.192Z,468.47
2024-02-16T06:15:33.475Z,490.11
2024-02-16T06:18:43.720Z,488.69
2024-02-16T06:21:51.843Z,482.82
2024-02-16T06:24:59.168Z,472.55
2024-02-16T06:28:08.213Z,470.17
2024-02-16T06:31:16.834Z,484.91
2024-02-16T06:34:28.085Z,480.74
2024-02-16T06:37:35.440Z,479.63
2024-02-16T06:40:43.521Z,483.16
2024-02-16T06:43:50.997Z,501.26
2024-02-16T06:46:59.552Z,523.33
2024-02-16T06:50:10.875Z,540.35
2024-02-16T06:53:19.158Z,541.94
2024-02-16T06:56:26.455Z,527.86
2024-02-16T06:59:34.571Z,520.42
2024-02-16T07:02:42.833Z,517.80
2024-02-16T07:05:53.778Z,478.50
2024-02-16T07:09:01.207Z,479.23
2024-02-16T07:12:13.471Z,482.00
2024-02-16T07:15:20.972Z,485.92
2024-02-16T07:18:29.384Z,466.51
2024-02-16T07:21:39.572Z,418.35
2024-02-16T07:24:47.874Z,406.39
2024-02-16T07:27:55.190Z,406.32
2024-02-16T07:31:03.467Z,402.90
2024-02-16T07:34:13.205Z,382.77
2024-02-16T07:37:23.935Z,378.30
2024-02-16T07:40:32.261Z,363.25
2024-02-16T07:43:40.262Z,366.23
2024-02-16T07:46:47.744Z,369.11
2024-02-16T07:49:55.973Z,372.38
2024-02-16T07:53:06.049Z,376.42
2024-02-16T07:56:14.141Z,381.96
2024-02-16T07:59:21.963Z,355.73
2024-02-16T08:02:30.340Z,366.42
2024-02-16T08:05:37.640Z,364.13
2024-02-16T08:08:48.429Z,372.58
2024-02-16T08:11:55.843Z,368.77
2024-02-16T08:15:05.386Z,372.32
2024-02-16T08:18:13.474Z,365.80
2024-02-16T08:21:22.528Z,371.41
2024-02-16T08:24:32.624Z,353.33
2024-02-16T08:27:41.384Z,370.92
2024-02-16T08:30:48.868Z,367.66
2024-02-16T08:33:57.462Z,353.95
2024-02-16T08:37:05.170Z,342.52
2024-02-16T08:40:18.442Z,328.21
2024-02-16T08:43:25.773Z,330.18
2024-02-16T08:46:33.917Z,311.10
2024-02-16T08:49:41.328Z,286.91
2024-02-16T08:52:49.447Z,279.19
2024-02-16T08:55:59.358Z,281.72
2024-02-16T08:59:07.441Z,266.73
2024-02-16T09:02:14.765Z,262.12
2024-02-16T09:05:23.067Z,252.02
2024-02-16T09:08:34.326Z,244.81
2024-02-16T09:11:45.023Z,243.24
2024-02-16T09:14:52.398Z,243.88
2024-02-16T09:18:00.650Z,242.86
2024-02-16T09:21:08.678Z,238.79
2024-02-16T09:24:19.500Z,237.37
2024-02-16T09:27:29.672Z,244.33
2024-02-16T09:30:37.807Z,221.37
2024-02-16T09:33:45.349Z,204.77
2024-02-16T09:36:53.452Z,174.92
2024-02-16T09:40:00.754Z,162.88
2024-02-16T09:43:11.541Z,143.40
2024-02-16T09:46:22.061Z,142.54
2024-02-16T09:49:38.702Z,137.56
2024-02-16T09:52:54.895Z,129.18
2024-02-16T09:56:03.119Z,117.60
2024-02-16T09:59:13.930Z,116.33
2024-02-16T10:02:22.127Z,117.19
2024-02-16T10:05:32.206Z,107.60
2024-02-16T10:08:52.830Z,104.11
2024-02-16T10:12:00.490Z,101.65
2024-02-16T10:15:13.254Z,106.29
2024-02-16T10:18:20.578Z,102.09
2024-02-16T10:21:30.781Z,78.44
2024-02-16T10:24:40.648Z,64.08
2024-02-16T10:27:56.126Z,56.88
2024-02-16T10:31:06.985Z,63.42
2024-02-16T10:34:18.253Z,65.33
2024-02-16T10:37:27.549Z,64.69
2024-02-16T10:40:40.035Z,62.79
2024-02-16T10:43:52.679Z,66.75
2024-02-16T10:47:04.031Z,70.06
2024-02-16T10:50:13.059Z,67.92
2024-02-16T10:53:31.706Z,67.77
2024-02-16T10:56:41.051Z,67.82
2024-02-16T10:59:51.879Z,63.73
2024-02-16T11:03:06.055Z,66.84
2024-02-16T11:06:23.147Z,62.11
2024-02-16T11:09:35.189Z,62.96
2024-02-16T11:12:50.901Z,59.79
2024-02-16T11:16:04.129Z,63.81
2024-02-16T11:19:18.190Z,64.03
2024-02-16T11:22:25.670Z,66.11
2024-02-16T11:25:37.879Z,64.25
2024-02-16T11:28:46.821Z,67.48
2024-02-16T11:31:55.149Z,69.51
2024-02-16T11:35:12.831Z,73.14
2024-02-16T11:38:20.985Z,74.68
2024-02-16T11:41:28.277Z,76.68
2024-02-16T11:44:41.302Z,86.15
2024-02-16T11:47:48.555Z,81.59
2024-02-16T11:51:08.311Z,77.67
2024-02-16T11:54:17.462Z,79.96
2024-02-16T11:57:26.650Z,93.20
2024-02-16T12:00:34.529Z,63.64
2024-02-16T12:03:47.320Z,41.35
2024-02-16T12:07:04.905Z,40.05
2024-02-16T12:10:15.448Z,37.62
2024-02-16T12:13:24.396Z,39.16
2024-02-16T12:16:33.474Z,37.60
2024-02-16T12:19:40.860Z,37.63
2024-02-16T12:22:51.585Z,38.84
2024-02-16T12:25:58.803Z,37.78
2024-02-16T12:29:07.559Z,39.84
2024-02-16T12:32:20.086Z,36.05
2024-02-16T12:35:28.643Z,38.96
2024-02-16T12:38:38.400Z,39.94
2024-02-16T12:41:46.565Z,41.58
2024-02-16T12:44:53.855Z,41.64
2024-02-16T12:48:02.038Z,44.19
2024-02-16T12:51:09.722Z,42.09
2024-02-16T12:54:20.631Z,42.52
2024-02-16T12:57:27.949Z,46.43
2024-02-16T13:00:36.211Z,44.60
2024-02-16T13:03:43.740Z,48.40
2024-02-16T13:06:54.467Z,48.17
2024-02-16T13:10:04.596Z,48.35
2024-02-16T13:13:12.680Z,46.68
2024-02-16T13:16:20.140Z,51.36
2024-02-16T13:19:28.464Z,48.51
2024-02-16T13:22:35.753Z,50.95
2024-02-16T13:25:46.432Z,50.55
2024-02-16T13:28:55.880Z,48.86
2024-02-16T13:32:05.262Z,50.38
2024-02-16T13:35:13.808Z,48.46
2024-02-16T13:38:22.697Z,50.56
2024-02-16T13:41:32.634Z,55.63
2024-02-16T13:44:41.375Z,55.30
2024-02-16T13:47:48.629Z,56.28
2024-02-16T13:50:59.090Z,59.66
2024-02-16T13:54:06.539Z,58.10
2024-02-16T13:57:17.262Z,54.83
2024-02-16T14:00:24.734Z,53.46
2024-02-16T14:03:33.189Z,53.78
2024-02-16T14:06:40.608Z,55.21
2024-02-16T14:09:48.754Z,54.30
2024-02-16T14:12:58.624Z,50.05
2024-02-16T14:16:06.791Z,54.23
2024-02-16T14:19:14.088Z,54.01
2024-02-16T14:22:22.352Z,53.12
2024-02-16T14:25:29.642Z,51.52
2024-02-16T14:28:40.567Z,52.01
2024-02-16T14:31:47.672Z,55.61
2024-02-16T14:34:55.847Z,59.54
2024-02-16T14:38:03.150Z,62.44
2024-02-16T14:41:11.107Z,62.71
2024-02-16T14:44:21.862Z,58.25
2024-02-16T14:47:29.909Z,79.04
2024-02-16T14:50:37.870Z,106.52
2024-02-16T14:53:45.917Z,107.84
2024-02-16T14:56:55.484Z,91.40
2024-02-16T15:00:07.299Z,73.20
2024-02-16T15:03:15.051Z,71.49
2024-02-16T15:06:23.129Z,77.58
2024-02-16T15:09:30.600Z,72.19
2024-02-16T15:12:41.482Z,70.93
2024-02-16T15:15:51.531Z,67.23
2024-02-16T15:18:59.741Z,70.65
2024-02-16T15:22:07.971Z,75.67
2024-02-16T15:25:16.152Z,120.11
2024-02-16T15:28:23.309Z,134.01
2024-02-16T15:31:34.519Z,84.57
2024-02-16T15:34:45.160Z,78.10
2024-02-16T15:37:53.396Z,67.73
2024-02-16T15:41:00.616Z,64.76
2024-02-16T15:44:08.990Z,65.37
2024-02-16T15:47:18.795Z,68.35
2024-02-16T15:50:28.422Z,81.65
2024-02-16T15:53:35.604Z,90.49
2024-02-16T15:56:43.712Z,91.00
2024-02-16T15:59:51.195Z,84.50
2024-02-16T16:03:02.537Z,87.06
2024-02-16T16:06:10.386Z,87.74
2024-02-16T16:09:19.226Z,91.32
2024-02-16T16:12:27.251Z,86.30
2024-02-16T16:15:35.297Z,89.04
2024-02-16T16:18:45.334Z,91.37
2024-02-16T16:21:54.867Z,95.22
2024-02-16T16:25:02.051Z,100.13
2024-02-16T16:28:10.713Z,108.70
2024-02-16T16:31:18.344Z,117.25
2024-02-16T16:34:29.410Z,152.94
2024-02-16T16:37:37.605Z,202.18
2024-02-16T16:40:45.561Z,287.13
2024-02-16T16:43:52.868Z,391.03
2024-02-16T16:47:00.878Z,396.55
2024-02-16T16:50:12.025Z,361.49
2024-02-16T16:53:20.378Z,311.47
2024-02-16T16:56:28.722Z,238.01
2024-02-16T16:59:37.450Z,193.16
2024-02-16T17:02:44.747Z,180.89
2024-02-16T17:05:55.528Z,191.64
2024-02-16T17:09:02.869Z,204.73
2024-02-16T17:12:12.378Z,207.50
2024-02-16T17:15:23.791Z,240.56
2024-02-16T17:18:35.733Z,271.05
2024-02-16T17:21:45.911Z,297.30
2024-02-16T17:24:54.205Z,343.81
2024-02-16T17:28:01.424Z,320.05
2024-02-16T17:31:09.514Z,316.09
2024-02-16T17:34:16.886Z,361.04
2024-02-16T17:37:27.719Z,337.53
2024-02-16T17:40:35.042Z,294.28
2024-02-16T17:43:46.210Z,281.85
2024-02-16T17:46:53.801Z,192.78
2024-02-16T17:50:01.992Z,155.98
2024-02-16T17:53:11.964Z,145.66
2024-02-16T17:56:20.370Z,126.94
2024-02-16T17:59:28.589Z,125.15
2024-02-16T18:02:41.086Z,130.21
2024-02-16T18:05:50.487Z,129.55
2024-02-16T18:09:01.794Z,141.19
2024-02-16T18:12:10.533Z,138.95
2024-02-16T18:15:19.957Z,152.68
2024-02-16T18:18:28.166Z,175.02
2024-02-16T18:21:37.026Z,198.93
2024-02-16T18:24:46.928Z,229.87
2024-02-16T18:27:55.058Z,273.45
2024-02-16T18:31:02.293Z,282.01
2024-02-16T18:34:10.365Z,267.97
2024-02-16T18:37:17.649Z,290.19
2024-02-16T18:40:28.451Z,300.32
2024-02-16T18:43:35.752Z,288.43
2024-02-16T18:46:45.336Z,304.96
2024-02-16T18:49:53.970Z,294.99
2024-02-16T18:53:02.138Z,278.70
2024-02-16T18:56:12.278Z,277.38
2024-02-16T18:59:20.367Z,267.82
2024-02-16T19:02:27.596Z,252.94
2024-02-16T19:05:35.791Z,254.07
2024-02-16T19:08:43.127Z,282.03
2024-02-16T19:11:53.906Z,242.40
2024-02-16T19:15:02.235Z,217.36
2024-02-16T19:18:11.841Z,213.32
2024-02-16T19:21:19.440Z,219.17
2024-02-16T19:24:33.501Z,222.89
2024-02-16T19:27:49.666Z,191.16
2024-02-16T19:30:57.851Z,192.39
2024-02-16T19:34:06.349Z,204.33
2024-02-16T19:37:14.518Z,193.73
2024-02-16T19:40:22.016Z,178.41
2024-02-16T19:43:33.103Z,170.39
2024-02-16T19:46:40.337Z,157.88
2024-02-16T19:49:48.563Z,157.58
2024-02-16T19:52:55.949Z,160.01
2024-02-16T19:56:04.360Z,158.71
2024-02-16T19:59:14.238Z,174.16
2024-02-16T20:02:22.285Z,192.74
2024-02-16T20:05:31.655Z,190.31
2024-02-16T20:08:39.702Z,201.51
2024-02-16T20:11:46.893Z,194.90
2024-02-16T20:14:57.566Z,208.98
2024-02-16T20:18:06.262Z,207.36
2024-02-16T20:21:15.883Z,184.60
2024-02-16T20:24:23.191Z,183.44
2024-02-16T20:27:31.712Z,178.82
2024-02-16T20:30:41.761Z,184.74
2024-02-16T20:33:50.259Z,176.74
2024-02-16T20:36:58.441Z,167.11
2024-02-16T20:40:07.529Z,166.91
2024-02-16T20:43:14.769Z,166.70
2024-02-16T20:46:25.482Z,178.32
2024-02-16T20:49:32.757Z,162.17
2024-02-16T20:52:40.924Z,157.57
2024-02-16T20:55:48.408Z,157.99
2024-02-16T20:58:56.719Z,164.61
2024-02-16T21:02:06.720Z,158.13
2024-02-16T21:05:15.453Z,154.34
2024-02-16T21:08:22.828Z,154.67
2024-02-16T21:11:31.020Z,152.59
2024-02-16T21:14:38.369Z,155.88
2024-02-16T21:17:49.587Z,163.22
2024-02-16T21:20:56.847Z,159.59
2024-02-16T21:24:05.501Z,190.19
2024-02-16T21:27:12.818Z,150.18
2024-02-16T21:30:21.195Z,146.24
2024-02-16T21:33:31.810Z,142.57
2024-02-16T21:36:40.119Z,138.11
2024-02-16T21:39:47.561Z,142.75
2024-02-16T21:42:55.683Z,138.62
2024-02-16T21:46:02.980Z,143.25
2024-02-16T21:49:13.998Z,139.84
2024-02-16T21:52:21.235Z,140.07
2024-02-16T21:55:29.367Z,139.12
2024-02-16T21:58:37.173Z,140.66
2024-02-16T22:01:45.343Z,137.01
2024-02-16T22:04:55.170Z,138.51
2024-02-16T22:08:04.751Z,137.91
2024-02-16T22:11:12.146Z,140.36
2024-02-16T22:14:20.145Z,138.55
2024-02-16T22:17:27.405Z,143.20
2024-02-16T22:20:38.213Z,152.77
2024-02-16T22:23:45.725Z,157.86
2024-02-16T22:26:54.829Z,164.49
2024-02-16T22:30:02.675Z,161.15
2024-02-16T22:33:10.990Z,160.65
2024-02-16T22:36:20.844Z,157.95
2024-02-16T22:39:28.934Z,159.50
2024-02-16T22:42:36.276Z,166.80
2024-02-16T22:45:44.540Z,160.79
2024-02-16T22:48:53.135Z,158.99
2024-02-16T22:52:04.842Z,162.27
2024-02-16T22:55:13.266Z,153.85
2024-02-16T22:58:21.464Z,148.16
2024-02-16T23:01:28.874Z,145.96
2024-02-16T23:04:36.875Z,148.99
2024-02-16T23:07:46.654Z,145.69
2024-02-16T23:10:54.993Z,148.25
2024-02-16T23:14:02.142Z,149.64
2024-02-16T23:17:10.320Z,148.08
2024-02-16T23:20:19.124Z,153.40
2024-02-16T23:23:29.822Z,155.25
2024-02-16T23:26:37.186Z,155.78
2024-02-16T23:29:45.176Z,158.52
2024-02-16T23:32:52.602Z,150.94
2024-02-16T23:36:00.821Z,152.96
2024-02-16T23:39:11.498Z,150.36
2024-02-16T23:42:19.584Z,147.76
2024-02-16T23:45:27.031Z,150.14
2024-02-16T23:48:35.248Z,154.63
2024-02-16T23:51:42.669Z,152.91
2024-02-16T23:54:53.381Z,154.70
2024-02-16T23:58:00.645Z,151.66
